Cathma — PJTL — position and weather

sailwx.info

Track history (hours):
 
Tides and Currents Weather Stations Pressure Air Temp Water Temp Dewpoint Dewpoint Depression Visibility Wind Speed Wind Dir Waves Ship Positions

Cathma

Last reported at 2015-Aug-28 11:26 UTC. Time now 2015-Sep-01 14:16 UTC.
Position N 50°34' E 000°16'.

Length 111 m; draft 6 m.

Type: Ship. MMSI: 306832000.

Date/timePositionNaut miles runAvg speedWind from/ knotsBaromVisibWave heightAir tempDewpointWater temp
2015-Aug-28 11:26N 50°34' E 000°16'910.6
2015-Aug-28 10:33N 50°36' E 000°30'10 9.7
2015-Aug-28 09:33N 50°41' E 000°44'23 9.9
2015-Aug-28 07:11N 50°56' E 001°12'812.0
2015-Aug-28 06:33N 51°01' E 001°21'1313.5
2015-Aug-28 05:34N 51°10' E 001°37'1212.4
2015-Aug-28 04:34N 51°19' E 001°49'1110.9
2015-Aug-28 03:33N 51°29' E 001°58'1010.0
2015-Aug-28 02:33N 51°36' E 002°09'157 9.2
2015-Aug-27 09:33N 53°33' E 005°01'1010.3
2015-Aug-27 08:33N 53°37' E 005°18'10 9.8
2015-Aug-27 07:33N 53°40' E 005°34'9 9.2
2015-Aug-27 06:33N 53°43' E 005°48'28 9.2
2015-Aug-27 03:28N 53°51' E 006°34'1110.1
2015-Aug-27 02:24N 53°54' E 006°52'910.8
2015-Aug-27 01:33N 53°56' E 007°07'1211.2
2015-Aug-27 00:30N 53°59' E 007°26'1011.1
2015-Aug-26 23:34N 54°02' E 007°44'1111.2
2015-Aug-26 22:33N 54°01' E 008°03'1110.8
2015-Aug-26 21:33N 53°60' E 008°21'1110.9
2015-Aug-26 20:33N 53°57' E 008°39'9 9.0
2015-Aug-26 19:33N 53°50' E 008°50'9 8.8
2015-Aug-26 18:33N 53°53' E 009°04'3 3.4
2015-Aug-26 17:33N 53°54' E 009°10'8 7.7
2015-Aug-26 16:33N 54°00' E 009°18'23 7.8
2015-Aug-26 13:32N 54°18' E 009°43'4 4.3
2015-Aug-26 12:33N 54°22' E 009°47'7 7.5
2015-Aug-26 11:34N 54°21' E 010°00'4 4.4
2015-Aug-26 10:34N 54°22' E 010°08'0 0.0
2015-Aug-26 09:34N 54°22' E 010°08'0 0.0
2015-Aug-26 08:34N 54°22' E 010°08'0 0.0
2015-Aug-26 07:34N 54°22' E 010°08'1 0.5
2015-Aug-26 06:34N 54°22' E 010°08'4 4.4
2015-Aug-26 05:33N 54°26' E 010°13'9 8.7
2015-Aug-26 04:34N 54°31' E 010°24'9 8.4
2015-Aug-26 03:33N 54°34' E 010°38'11 8.7
2015-Aug-26 02:17N 54°36' E 010°56'6 8.6
2015-Aug-26 01:33N 54°36' E 011°07'9 8.5
2015-Aug-26 00:33N 54°33' E 011°21'9 8.7
2015-Aug-25 23:33N 54°30' E 011°35'9 8.8
2015-Aug-25 22:33N 54°27' E 011°49'10 9.8
2015-Aug-25 21:34N 54°27' E 012°06'65 9.1
2015-Aug-25 14:20N 54°42' E 013°55'810.3
2015-Aug-25 13:34N 54°40' E 014°08'2210.2
2015-Aug-25 11:26N 54°39' E 014°46'1310.5
2015-Aug-25 10:13N 54°41' E 015°08'7410.5
2015-Aug-25 03:09N 54°54' E 017°15'1710.8
2015-Aug-25 01:34N 54°55' E 017°44'1110.8
2015-Aug-25 00:33N 54°55' E 018°03'1110.6
2015-Aug-24 23:34N 54°54' E 018°22'1110.8
2015-Aug-24 22:33N 54°49' E 018°38'1211.8
2015-Aug-24 21:33N 54°42' E 018°54'10 9.6
2015-Aug-24 20:33N 54°32' E 018°49'9 9.2
2015-Aug-24 19:33N 54°32' E 018°33'1 0.5
2015-Aug-24 18:32N 54°32' E 018°33'0 0.0
2015-Aug-24 17:32N 54°32' E 018°33'0 0.0
2015-Aug-24 16:32N 54°32' E 018°33'0 0.0
2015-Aug-24 15:31N 54°32' E 018°33'0 0.0
2015-Aug-24 14:31N 54°32' E 018°33'0 0.0
2015-Aug-24 13:33N 54°32' E 018°33'0 0.0
2015-Aug-24 12:33N 54°32' E 018°33'0 0.0
2015-Aug-24 11:32N 54°32' E 018°33'0 0.0
2015-Aug-24 10:29N 54°32' E 018°33'0 0.0
2015-Aug-24 09:32N 54°32' E 018°33'0 0.0
2015-Aug-24 08:31N 54°32' E 018°33'0 0.0
2015-Aug-24 07:31N 54°32' E 018°33'0 0.0
2015-Aug-24 06:33N 54°32' E 018°33'0 0.0
2015-Aug-24 05:33N 54°32' E 018°33'0 0.0
2015-Aug-24 04:29N 54°32' E 018°33'0 0.0
2015-Aug-24 03:32N 54°32' E 018°33'0 0.0
2015-Aug-24 02:32N 54°32' E 018°33'0 0.0
2015-Aug-24 01:31N 54°32' E 018°33'0 0.0
2015-Aug-24 00:31N 54°32' E 018°33'0 0.0
2015-Aug-23 23:33N 54°32' E 018°33'0 0.0
2015-Aug-23 22:33N 54°32' E 018°33'0 0.1
2015-Aug-23 21:32N 54°32' E 018°33'0 0.0
2015-Aug-23 20:32N 54°32' E 018°33'0 0.1
2015-Aug-23 19:32N 54°32' E 018°33'0 0.0
2015-Aug-23 18:31N 54°32' E 018°33'0 0.0
2015-Aug-23 17:31N 54°32' E 018°33'0 0.0
2015-Aug-23 16:30N 54°32' E 018°33'0 0.0
2015-Aug-23 15:33N 54°32' E 018°33'0 0.0
2015-Aug-23 14:32N 54°32' E 018°33'0 0.0
2015-Aug-23 13:32N 54°32' E 018°33'0 0.0
2015-Aug-23 12:31N 54°32' E 018°33'0 0.0
2015-Aug-23 11:31N 54°32' E 018°33'0 0.0
2015-Aug-23 10:31N 54°32' E 018°33'0 0.0
2015-Aug-23 09:33N 54°32' E 018°33'0 0.0
2015-Aug-23 08:33N 54°32' E 018°33'0 0.0
2015-Aug-23 07:32N 54°32' E 018°33'0 0.0
2015-Aug-23 06:32N 54°32' E 018°33'0 0.0
2015-Aug-23 05:31N 54°32' E 018°33'0 0.0
2015-Aug-23 04:31N 54°32' E 018°33'0 0.0
2015-Aug-23 03:31N 54°32' E 018°33'0 0.0
2015-Aug-23 02:33N 54°32' E 018°33'0 0.0
2015-Aug-23 01:33N 54°32' E 018°33'0 0.0
2015-Aug-23 00:32N 54°32' E 018°33'0 0.0
2015-Aug-22 23:32N 54°32' E 018°33'0 0.0
2015-Aug-22 22:31N 54°32' E 018°33'0 0.0
2015-Aug-22 21:31N 54°32' E 018°33'0 0.0
2015-Aug-22 20:32N 54°32' E 018°33'0 0.0
2015-Aug-22 19:33N 54°32' E 018°33'0 0.0
2015-Aug-22 18:33N 54°32' E 018°33'0 0.0
2015-Aug-22 17:32N 54°32' E 018°33'0 0.0
2015-Aug-22 16:32N 54°32' E 018°33'0 0.0
2015-Aug-22 15:31N 54°32' E 018°33'0 0.0
2015-Aug-22 14:31N 54°32' E 018°33'0 0.0
2015-Aug-22 13:31N 54°32' E 018°33'0 0.0
2015-Aug-22 12:33N 54°32' E 018°33'0 0.0
2015-Aug-22 11:33N 54°32' E 018°33'0 0.0
2015-Aug-22 10:32N 54°32' E 018°33'0 0.0
2015-Aug-22 09:32N 54°32' E 018°33'0 0.0
2015-Aug-22 08:32N 54°32' E 018°33'1 1.3
2015-Aug-22 07:33N 54°32' E 018°35'6 6.2
2015-Aug-22 06:33N 54°32' E 018°46'10 9.8
2015-Aug-22 05:34N 54°40' E 018°56'1211.8
2015-Aug-22 04:33N 54°47' E 018°39'1211.7
2015-Aug-22 03:33N 54°53' E 018°22'1212.4
2015-Aug-22 02:33N 54°54' E 018°01'1212.3
2015-Aug-22 01:33N 54°53' E 017°39'1212.0
2015-Aug-22 00:33N 54°52' E 017°18'1212.0
2015-Aug-21 23:33N 54°49' E 016°58'1212.0
2015-Aug-21 22:33N 54°47' E 016°38'1212.3
2015-Aug-21 21:33N 54°45' E 016°17'1212.1
2015-Aug-21 20:33N 54°44' E 015°56'1212.1
2015-Aug-21 19:32N 54°42' E 015°35'1212.1
2015-Aug-21 18:32N 54°40' E 015°14'1212.3
2015-Aug-21 17:33N 54°38' E 014°54'1212.0
2015-Aug-21 16:33N 54°36' E 014°33'1211.8
2015-Aug-21 15:33N 54°37' E 014°13'1212.3
2015-Aug-21 14:33N 54°40' E 013°52'1212.1
2015-Aug-21 13:33N 54°43' E 013°32'1211.6
2015-Aug-21 12:33N 54°44' E 013°12'1212.0
2015-Aug-21 11:33N 54°42' E 012°51'1211.9
2015-Aug-21 10:33N 54°37' E 012°33'1211.8
2015-Aug-21 09:33N 54°30' E 012°16'1110.6
2015-Aug-21 08:33N 54°24' E 012°00'1111.3
2015-Aug-21 07:33N 54°26' E 011°41'1211.5
2015-Aug-21 06:33N 54°31' E 011°23'1111.4
2015-Aug-21 05:33N 54°35' E 011°05'1312.6
2015-Aug-21 04:33N 54°34' E 010°43'1212.3
2015-Aug-21 03:33N 54°31' E 010°23'1010.3
2015-Aug-21 02:33N 54°23' E 010°11'2 2.2
2015-Aug-21 01:33N 54°22' E 010°08'5 5.4
2015-Aug-21 00:33N 54°21' E 009°59'7 6.7
2015-Aug-20 23:33N 54°22' E 009°47'9 8.3
2015-Aug-20 22:32N 54°15' E 009°37'8 8.1
2015-Aug-20 21:30N 54°10' E 009°26'7 7.7
2015-Aug-20 20:33N 54°04' E 009°19'8 7.7
2015-Aug-20 19:33N 53°57' E 009°14'5 5.1
2015-Aug-20 18:33N 53°53' E 009°08'10 9.8
2015-Aug-20 17:33N 53°50' E 008°52'1111.3
2015-Aug-20 16:34N 53°57' E 008°37'1211.5
2015-Aug-20 15:33N 53°59' E 008°18'1010.1
2015-Aug-20 14:33N 53°58' E 008°01'6 6.1
2015-Aug-20 13:32N 53°55' E 007°51'0 0.0
2015-Aug-20 12:23N 53°55' E 007°51'0 0.0
2015-Aug-20 11:31N 53°55' E 007°51'0 0.0
2015-Aug-20 10:28N 53°55' E 007°51'0 0.0
2015-Aug-20 09:30N 53°55' E 007°51'0 0.0
2015-Aug-20 08:27N 53°55' E 007°51'0 0.0
2015-Aug-20 07:32N 53°55' E 007°51'0 0.0
2015-Aug-20 06:32N 53°55' E 007°51'0 0.0
2015-Aug-20 05:32N 53°55' E 007°51'0 0.0
2015-Aug-20 04:31N 53°55' E 007°51'0 0.0
2015-Aug-20 03:31N 53°55' E 007°51'0 0.0
2015-Aug-20 02:27N 53°55' E 007°51'0 0.0
2015-Aug-20 01:30N 53°55' E 007°51'0 0.0
2015-Aug-20 00:32N 53°55' E 007°51'0 0.0
2015-Aug-19 23:29N 53°55' E 007°51'0 0.0
2015-Aug-19 22:29N 53°55' E 007°51'0 0.0
2015-Aug-19 21:31N 53°55' E 007°51'0 0.0
2015-Aug-19 20:31N 53°55' E 007°51'0 0.0
2015-Aug-19 19:27N 53°55' E 007°51'0 0.0
2015-Aug-19 18:33N 53°55' E 007°51'0 0.0
2015-Aug-19 17:23N 53°55' E 007°51'0 0.0
2015-Aug-19 16:29N 53°55' E 007°51'0 0.0
2015-Aug-19 15:29N 53°55' E 007°51'0 0.0
2015-Aug-19 13:17N 53°55' E 007°51'0 0.0
2015-Aug-19 11:24N 53°55' E 007°51'0 0.0
2015-Aug-19 10:32N 53°55' E 007°51'0 0.0
2015-Aug-19 09:26N 53°55' E 007°51'0 0.0
2015-Aug-19 08:28N 53°55' E 007°51'0 0.0
2015-Aug-19 07:17N 53°55' E 007°51'0 0.0
2015-Aug-19 06:31N 53°55' E 007°51'0 0.0
2015-Aug-19 05:17N 53°55' E 007°51'0 0.0
2015-Aug-19 04:33N 53°55' E 007°51'0 0.0
2015-Aug-19 03:32N 53°55' E 007°51'0 0.0
2015-Aug-19 02:32N 53°55' E 007°51'0 0.0
2015-Aug-19 01:25N 53°55' E 007°51'0 0.0
2015-Aug-19 00:28N 53°55' E 007°51'0 0.0
2015-Aug-18 23:17N 53°55' E 007°51'0 0.0
2015-Aug-18 22:21N 53°55' E 007°51'0 0.0
2015-Aug-18 20:14N 53°55' E 007°51'0 0.0
2015-Aug-18 19:23N 53°55' E 007°51'0 0.0
2015-Aug-18 17:25N 53°55' E 007°51'0 0.0
2015-Aug-18 15:34N 53°55' E 007°51'0 0.0
2015-Aug-18 14:33N 53°55' E 007°51'0 0.0
2015-Aug-18 13:17N 53°55' E 007°51'0 0.0
2015-Aug-18 12:05N 53°55' E 007°51'  
Track history (hours):
 
Tides and Currents Weather Stations Pressure Air Temp Water Temp Dewpoint Dewpoint Depression Visibility Wind Speed Wind Dir Waves Ship Positions

Cathma

Last reported at 2015-Aug-28 11:26 UTC. Time now 2015-Sep-01 14:16 UTC.
Position N 50°34' E 000°16'.

Length 111 m; draft 6 m.

Type: Ship. MMSI: 306832000.

Date/timePositionNaut miles runAvg speedWind from/ knotsBaromVisibWave heightAir tempDewpointWater temp
2015-Aug-28 11:26N 50°34' E 000°16'910.6
2015-Aug-28 10:33N 50°36' E 000°30'10 9.7
2015-Aug-28 09:33N 50°41' E 000°44'23 9.9
2015-Aug-28 07:11N 50°56' E 001°12'812.0
2015-Aug-28 06:33N 51°01' E 001°21'1313.5
2015-Aug-28 05:34N 51°10' E 001°37'1212.4
2015-Aug-28 04:34N 51°19' E 001°49'1110.9
2015-Aug-28 03:33N 51°29' E 001°58'1010.0
2015-Aug-28 02:33N 51°36' E 002°09'157 9.2
2015-Aug-27 09:33N 53°33' E 005°01'1010.3
2015-Aug-27 08:33N 53°37' E 005°18'10 9.8
2015-Aug-27 07:33N 53°40' E 005°34'9 9.2
2015-Aug-27 06:33N 53°43' E 005°48'28 9.2
2015-Aug-27 03:28N 53°51' E 006°34'1110.1
2015-Aug-27 02:24N 53°54' E 006°52'910.8
2015-Aug-27 01:33N 53°56' E 007°07'1211.2
2015-Aug-27 00:30N 53°59' E 007°26'1011.1
2015-Aug-26 23:34N 54°02' E 007°44'1111.2
2015-Aug-26 22:33N 54°01' E 008°03'1110.8
2015-Aug-26 21:33N 53°60' E 008°21'1110.9
2015-Aug-26 20:33N 53°57' E 008°39'9 9.0
2015-Aug-26 19:33N 53°50' E 008°50'9 8.8
2015-Aug-26 18:33N 53°53' E 009°04'3 3.4
2015-Aug-26 17:33N 53°54' E 009°10'8 7.7
2015-Aug-26 16:33N 54°00' E 009°18'23 7.8
2015-Aug-26 13:32N 54°18' E 009°43'4 4.3
2015-Aug-26 12:33N 54°22' E 009°47'7 7.5
2015-Aug-26 11:34N 54°21' E 010°00'4 4.4
2015-Aug-26 10:34N 54°22' E 010°08'0 0.0
2015-Aug-26 09:34N 54°22' E 010°08'0 0.0
2015-Aug-26 08:34N 54°22' E 010°08'0 0.0
2015-Aug-26 07:34N 54°22' E 010°08'1 0.5
2015-Aug-26 06:34N 54°22' E 010°08'4 4.4
2015-Aug-26 05:33N 54°26' E 010°13'9 8.7
2015-Aug-26 04:34N 54°31' E 010°24'9 8.4
2015-Aug-26 03:33N 54°34' E 010°38'11 8.7
2015-Aug-26 02:17N 54°36' E 010°56'6 8.6
2015-Aug-26 01:33N 54°36' E 011°07'9 8.5
2015-Aug-26 00:33N 54°33' E 011°21'9 8.7
2015-Aug-25 23:33N 54°30' E 011°35'9 8.8
2015-Aug-25 22:33N 54°27' E 011°49'10 9.8
2015-Aug-25 21:34N 54°27' E 012°06'65 9.1
2015-Aug-25 14:20N 54°42' E 013°55'810.3
2015-Aug-25 13:34N 54°40' E 014°08'2210.2
2015-Aug-25 11:26N 54°39' E 014°46'1310.5
2015-Aug-25 10:13N 54°41' E 015°08'7410.5
2015-Aug-25 03:09N 54°54' E 017°15'1710.8
2015-Aug-25 01:34N 54°55' E 017°44'1110.8
2015-Aug-25 00:33N 54°55' E 018°03'1110.6
2015-Aug-24 23:34N 54°54' E 018°22'1110.8
2015-Aug-24 22:33N 54°49' E 018°38'1211.8
2015-Aug-24 21:33N 54°42' E 018°54'10 9.6
2015-Aug-24 20:33N 54°32' E 018°49'9 9.2
2015-Aug-24 19:33N 54°32' E 018°33'1 0.5
2015-Aug-24 18:32N 54°32' E 018°33'0 0.0
2015-Aug-24 17:32N 54°32' E 018°33'0 0.0
2015-Aug-24 16:32N 54°32' E 018°33'0 0.0
2015-Aug-24 15:31N 54°32' E 018°33'0 0.0
2015-Aug-24 14:31N 54°32' E 018°33'0 0.0
2015-Aug-24 13:33N 54°32' E 018°33'0 0.0
2015-Aug-24 12:33N 54°32' E 018°33'0 0.0
2015-Aug-24 11:32N 54°32' E 018°33'0 0.0
2015-Aug-24 10:29N 54°32' E 018°33'0 0.0
2015-Aug-24 09:32N 54°32' E 018°33'0 0.0
2015-Aug-24 08:31N 54°32' E 018°33'0 0.0
2015-Aug-24 07:31N 54°32' E 018°33'0 0.0
2015-Aug-24 06:33N 54°32' E 018°33'0 0.0
2015-Aug-24 05:33N 54°32' E 018°33'0 0.0
2015-Aug-24 04:29N 54°32' E 018°33'0 0.0
2015-Aug-24 03:32N 54°32' E 018°33'0 0.0
2015-Aug-24 02:32N 54°32' E 018°33'0 0.0
2015-Aug-24 01:31N 54°32' E 018°33'0 0.0
2015-Aug-24 00:31N 54°32' E 018°33'0 0.0
2015-Aug-23 23:33N 54°32' E 018°33'0 0.0
2015-Aug-23 22:33N 54°32' E 018°33'0 0.1
2015-Aug-23 21:32N 54°32' E 018°33'0 0.0
2015-Aug-23 20:32N 54°32' E 018°33'0 0.1
2015-Aug-23 19:32N 54°32' E 018°33'0 0.0
2015-Aug-23 18:31N 54°32' E 018°33'0 0.0
2015-Aug-23 17:31N 54°32' E 018°33'0 0.0
2015-Aug-23 16:30N 54°32' E 018°33'0 0.0
2015-Aug-23 15:33N 54°32' E 018°33'0 0.0
2015-Aug-23 14:32N 54°32' E 018°33'0 0.0
2015-Aug-23 13:32N 54°32' E 018°33'0 0.0
2015-Aug-23 12:31N 54°32' E 018°33'0 0.0
2015-Aug-23 11:31N 54°32' E 018°33'0 0.0
2015-Aug-23 10:31N 54°32' E 018°33'0 0.0
2015-Aug-23 09:33N 54°32' E 018°33'0 0.0
2015-Aug-23 08:33N 54°32' E 018°33'0 0.0
2015-Aug-23 07:32N 54°32' E 018°33'0 0.0
2015-Aug-23 06:32N 54°32' E 018°33'0 0.0
2015-Aug-23 05:31N 54°32' E 018°33'0 0.0
2015-Aug-23 04:31N 54°32' E 018°33'0 0.0
2015-Aug-23 03:31N 54°32' E 018°33'0 0.0
2015-Aug-23 02:33N 54°32' E 018°33'0 0.0
2015-Aug-23 01:33N 54°32' E 018°33'0 0.0
2015-Aug-23 00:32N 54°32' E 018°33'0 0.0
2015-Aug-22 23:32N 54°32' E 018°33'0 0.0
2015-Aug-22 22:31N 54°32' E 018°33'0 0.0
2015-Aug-22 21:31N 54°32' E 018°33'0 0.0
2015-Aug-22 20:32N 54°32' E 018°33'0 0.0
2015-Aug-22 19:33N 54°32' E 018°33'0 0.0
2015-Aug-22 18:33N 54°32' E 018°33'0 0.0
2015-Aug-22 17:32N 54°32' E 018°33'0 0.0
2015-Aug-22 16:32N 54°32' E 018°33'0 0.0
2015-Aug-22 15:31N 54°32' E 018°33'0 0.0
2015-Aug-22 14:31N 54°32' E 018°33'0 0.0
2015-Aug-22 13:31N 54°32' E 018°33'0 0.0
2015-Aug-22 12:33N 54°32' E 018°33'0 0.0
2015-Aug-22 11:33N 54°32' E 018°33'0 0.0
2015-Aug-22 10:32N 54°32' E 018°33'0 0.0
2015-Aug-22 09:32N 54°32' E 018°33'0 0.0
2015-Aug-22 08:32N 54°32' E 018°33'1 1.3
2015-Aug-22 07:33N 54°32' E 018°35'6 6.2
2015-Aug-22 06:33N 54°32' E 018°46'10 9.8
2015-Aug-22 05:34N 54°40' E 018°56'1211.8
2015-Aug-22 04:33N 54°47' E 018°39'1211.7
2015-Aug-22 03:33N 54°53' E 018°22'1212.4
2015-Aug-22 02:33N 54°54' E 018°01'1212.3
2015-Aug-22 01:33N 54°53' E 017°39'1212.0
2015-Aug-22 00:33N 54°52' E 017°18'1212.0
2015-Aug-21 23:33N 54°49' E 016°58'1212.0
2015-Aug-21 22:33N 54°47' E 016°38'1212.3
2015-Aug-21 21:33N 54°45' E 016°17'1212.1
2015-Aug-21 20:33N 54°44' E 015°56'1212.1
2015-Aug-21 19:32N 54°42' E 015°35'1212.1
2015-Aug-21 18:32N 54°40' E 015°14'1212.3
2015-Aug-21 17:33N 54°38' E 014°54'1212.0
2015-Aug-21 16:33N 54°36' E 014°33'1211.8
2015-Aug-21 15:33N 54°37' E 014°13'1212.3
2015-Aug-21 14:33N 54°40' E 013°52'1212.1
2015-Aug-21 13:33N 54°43' E 013°32'1211.6
2015-Aug-21 12:33N 54°44' E 013°12'1212.0
2015-Aug-21 11:33N 54°42' E 012°51'1211.9
2015-Aug-21 10:33N 54°37' E 012°33'1211.8
2015-Aug-21 09:33N 54°30' E 012°16'1110.6
2015-Aug-21 08:33N 54°24' E 012°00'1111.3
2015-Aug-21 07:33N 54°26' E 011°41'1211.5
2015-Aug-21 06:33N 54°31' E 011°23'1111.4
2015-Aug-21 05:33N 54°35' E 011°05'1312.6
2015-Aug-21 04:33N 54°34' E 010°43'1212.3
2015-Aug-21 03:33N 54°31' E 010°23'1010.3
2015-Aug-21 02:33N 54°23' E 010°11'2 2.2
2015-Aug-21 01:33N 54°22' E 010°08'5 5.4
2015-Aug-21 00:33N 54°21' E 009°59'7 6.7
2015-Aug-20 23:33N 54°22' E 009°47'9 8.3
2015-Aug-20 22:32N 54°15' E 009°37'8 8.1
2015-Aug-20 21:30N 54°10' E 009°26'7 7.7
2015-Aug-20 20:33N 54°04' E 009°19'8 7.7
2015-Aug-20 19:33N 53°57' E 009°14'5 5.1
2015-Aug-20 18:33N 53°53' E 009°08'10 9.8
2015-Aug-20 17:33N 53°50' E 008°52'1111.3
2015-Aug-20 16:34N 53°57' E 008°37'1211.5
2015-Aug-20 15:33N 53°59' E 008°18'1010.1
2015-Aug-20 14:33N 53°58' E 008°01'6 6.1
2015-Aug-20 13:32N 53°55' E 007°51'0 0.0
2015-Aug-20 12:23N 53°55' E 007°51'0 0.0
2015-Aug-20 11:31N 53°55' E 007°51'0 0.0
2015-Aug-20 10:28N 53°55' E 007°51'0 0.0
2015-Aug-20 09:30N 53°55' E 007°51'0 0.0
2015-Aug-20 08:27N 53°55' E 007°51'0 0.0
2015-Aug-20 07:32N 53°55' E 007°51'0 0.0
2015-Aug-20 06:32N 53°55' E 007°51'0 0.0
2015-Aug-20 05:32N 53°55' E 007°51'0 0.0
2015-Aug-20 04:31N 53°55' E 007°51'0 0.0
2015-Aug-20 03:31N 53°55' E 007°51'0 0.0
2015-Aug-20 02:27N 53°55' E 007°51'0 0.0
2015-Aug-20 01:30N 53°55' E 007°51'0 0.0
2015-Aug-20 00:32N 53°55' E 007°51'0 0.0
2015-Aug-19 23:29N 53°55' E 007°51'0 0.0
2015-Aug-19 22:29N 53°55' E 007°51'0 0.0
2015-Aug-19 21:31N 53°55' E 007°51'0 0.0
2015-Aug-19 20:31N 53°55' E 007°51'0 0.0
2015-Aug-19 19:27N 53°55' E 007°51'0 0.0
2015-Aug-19 18:33N 53°55' E 007°51'0 0.0
2015-Aug-19 17:23N 53°55' E 007°51'0 0.0
2015-Aug-19 16:29N 53°55' E 007°51'0 0.0
2015-Aug-19 15:29N 53°55' E 007°51'0 0.0
2015-Aug-19 13:17N 53°55' E 007°51'0 0.0
2015-Aug-19 11:24N 53°55' E 007°51'0 0.0
2015-Aug-19 10:32N 53°55' E 007°51'0 0.0
2015-Aug-19 09:26N 53°55' E 007°51'0 0.0
2015-Aug-19 08:28N 53°55' E 007°51'0 0.0
2015-Aug-19 07:17N 53°55' E 007°51'0 0.0
2015-Aug-19 06:31N 53°55' E 007°51'0 0.0
2015-Aug-19 05:17N 53°55' E 007°51'0 0.0
2015-Aug-19 04:33N 53°55' E 007°51'0 0.0
2015-Aug-19 03:32N 53°55' E 007°51'0 0.0
2015-Aug-19 02:32N 53°55' E 007°51'0 0.0
2015-Aug-19 01:25N 53°55' E 007°51'0 0.0
2015-Aug-19 00:28N 53°55' E 007°51'0 0.0
2015-Aug-18 23:17N 53°55' E 007°51'0 0.0
2015-Aug-18 22:21N 53°55' E 007°51'0 0.0
2015-Aug-18 20:14N 53°55' E 007°51'0 0.0
2015-Aug-18 19:23N 53°55' E 007°51'0 0.0
2015-Aug-18 17:25N 53°55' E 007°51'0 0.0
2015-Aug-18 15:34N 53°55' E 007°51'0 0.0
2015-Aug-18 14:33N 53°55' E 007°51'0 0.0
2015-Aug-18 13:17N 53°55' E 007°51'0 0.0
2015-Aug-18 12:05N 53°55' E 007°51'  

Dump ship's entire track history